Time;durP1;ratioP1;P1;durP2;ratioP2;P2;SDS_P1;SDS_P2;PMS_P1;PMS_P2;Temp;Humidity;BMP_temperature;BMP_pressure;BME280_temperature;BME280_humidity;BME280_pressure;Samples;Min_cycle;Max_cycle;Signal;HPM_P1;HPM_P2
2022/06/04 00:03:46;;;;;;;2.40;2.20;;;;;;;14.42;80.30;101965.22;10524885;28;20052;-72
2022/06/04 00:08:47;;;;;;;5.25;2.67;;;;;;;14.30;80.74;101958.63;10523814;28;20032;-73
2022/06/04 00:19:06;;;;;;;3.58;2.28;;;;;;;14.26;79.88;101969.06;10541979;28;20028;-71
2022/06/04 00:24:06;;;;;;;3.20;2.88;;;;;;;14.04;81.69;101967.38;10526166;28;20032;-73
2022/06/04 00:29:09;;;;;;;4.13;2.92;;;;;;;13.98;81.61;101973.63;10548557;28;20024;-73
2022/06/04 00:34:09;;;;;;;3.78;2.25;;;;;;;13.93;80.35;101977.75;10542016;28;20178;-72
2022/06/04 00:39:10;;;;;;;2.72;2.38;;;;;;;13.84;81.77;101978.06;10523697;28;20043;-74
2022/06/04 00:44:10;;;;;;;4.18;2.47;;;;;;;13.69;84.94;101986.28;10524722;28;20504;-73
2022/06/04 00:49:13;;;;;;;5.50;2.80;;;;;;;13.73;82.51;101984.88;10523561;28;20056;-73
2022/06/04 00:54:14;;;;;;;4.40;3.25;;;;;;;13.77;82.17;101985.31;10531837;28;20396;-73
2022/06/04 00:59:42;;;;;;;3.25;3.05;;;;;;;13.68;84.49;101987.31;10535140;28;20035;-71
2022/06/04 01:04:48;;;;;;;5.97;2.45;;;;;;;13.60;85.48;101991.00;10543365;28;20141;-74
2022/06/04 01:10:10;;;;;;;2.93;2.73;;;;;;;13.49;86.59;101978.72;10543639;28;20455;-73
2022/06/04 01:15:26;;;;;;;3.50;2.63;;;;;;;13.43;88.43;101984.06;10544069;28;20564;-71
2022/06/04 01:20:51;;;;;;;3.55;3.15;;;;;;;13.31;88.80;101993.78;10530059;28;20105;-73
2022/06/04 01:26:08;;;;;;;4.03;3.42;;;;;;;13.30;88.90;102011.09;10523092;28;20032;-72
2022/06/04 01:31:08;;;;;;;13.35;3.80;;;;;;;13.31;90.20;102026.41;10505920;28;20461;-73
2022/06/04 01:36:13;;;;;;;4.53;3.60;;;;;;;13.35;89.12;102008.69;10489958;28;20032;-73
2022/06/04 01:41:34;;;;;;;10.55;4.35;;;;;;;13.43;87.38;102008.56;10525707;28;20110;-73
2022/06/04 01:46:37;;;;;;;8.43;3.88;;;;;;;13.51;85.47;102041.13;10521971;28;20029;-72
2022/06/04 01:51:37;;;;;;;7.85;2.97;;;;;;;13.48;87.73;102031.44;10521939;28;20385;-73
2022/06/04 01:56:40;;;;;;;4.93;4.50;;;;;;;13.49;87.27;102035.00;10522210;28;20090;-72
2022/06/04 02:01:40;;;;;;;5.90;3.05;;;;;;;13.48;89.16;102031.44;10521559;28;20031;-73
2022/06/04 02:06:43;;;;;;;5.68;3.75;;;;;;;13.32;91.22;102026.22;10565877;28;20515;-73
2022/06/04 02:11:49;;;;;;;6.97;3.78;;;;;;;13.32;90.64;102014.50;10572477;28;20056;-72
2022/06/04 02:16:53;;;;;;;3.43;3.13;;;;;;;13.25;91.56;102017.13;10555952;28;20036;-73
2022/06/04 02:21:54;;;;;;;5.40;3.38;;;;;;;13.32;90.07;102014.50;10571486;28;20410;-73
2022/06/04 02:26:54;;;;;;;7.05;3.88;;;;;;;13.30;90.98;102022.00;10589710;28;20027;-72
2022/06/04 02:32:06;;;;;;;5.78;3.92;;;;;;;13.18;91.19;102025.16;10589689;28;20039;-72
2022/06/04 02:37:09;;;;;;;4.75;4.28;;;;;;;13.15;91.00;102036.41;10588407;28;20079;-72
2022/06/04 02:42:20;;;;;;;8.95;3.65;;;;;;;13.17;91.42;102042.50;10570882;28;20031;-73
2022/06/04 02:47:30;;;;;;;3.95;3.65;;;;;;;13.09;91.38;102009.13;10589613;28;20066;-72
2022/06/04 02:52:31;;;;;;;4.72;4.25;;;;;;;13.11;92.29;102005.16;10554617;28;20061;-73
2022/06/04 02:57:32;;;;;;;8.70;3.58;;;;;;;12.97;93.48;101992.41;10571799;28;20345;-73
2022/06/04 03:02:32;;;;;;;5.05;4.18;;;;;;;12.96;93.61;102005.16;10584664;28;20118;-72
2022/06/04 03:07:33;;;;;;;4.63;4.22;;;;;;;12.87;93.51;101991.84;10496399;28;20028;-73
2022/06/04 03:12:33;;;;;;;8.77;4.97;;;;;;;12.86;93.21;101993.72;10528527;28;20039;-74
2022/06/04 03:17:34;;;;;;;7.18;3.80;;;;;;;12.88;93.20;102001.69;10547756;28;20028;-73
2022/06/04 03:22:35;;;;;;;8.05;4.75;;;;;;;12.92;92.86;102009.31;10531278;28;20192;-73
2022/06/04 03:27:35;;;;;;;11.50;4.90;;;;;;;12.91;93.63;102012.19;10531339;28;20039;-72
2022/06/04 03:32:36;;;;;;;9.40;4.18;;;;;;;12.89;93.54;102000.66;10511043;28;20385;-73
2022/06/04 03:37:36;;;;;;;6.47;4.72;;;;;;;12.90;93.24;101994.19;10526050;28;20127;-73
2022/06/04 03:42:37;;;;;;;6.40;4.95;;;;;;;12.94;92.38;101968.31;10543800;28;20032;-72
2022/06/04 03:47:37;;;;;;;9.52;5.40;;;;;;;13.10;90.10;101994.47;10509102;28;20036;-73
2022/06/04 03:52:38;;;;;;;7.10;5.00;;;;;;;13.19;89.71;101980.59;10526566;28;20035;-72
2022/06/04 03:57:45;;;;;;;5.57;5.07;;;;;;;13.08;93.94;101983.81;10508023;28;20067;-72
2022/06/04 04:02:51;;;;;;;10.30;6.30;;;;;;;13.05;94.09;102008.66;10509260;28;20052;-72
2022/06/04 04:07:52;;;;;;;10.55;5.53;;;;;;;13.07;93.05;102011.19;10525506;28;20074;-73
2022/06/04 04:12:52;;;;;;;8.73;5.13;;;;;;;13.18;90.37;102006.13;10526736;28;20035;-73
2022/06/04 04:17:53;;;;;;;7.43;6.18;;;;;;;13.10;92.48;102006.19;10524417;28;20020;-73
2022/06/04 04:22:54;;;;;;;7.38;5.28;;;;;;;13.01;93.01;102010.03;10508254;28;20032;-73
2022/06/04 04:27:54;;;;;;;10.75;6.57;;;;;;;12.97;94.26;102008.72;10522630;28;20074;-73
2022/06/04 04:32:55;;;;;;;6.20;5.28;;;;;;;13.08;92.69;102010.13;10541560;28;20114;-72
2022/06/04 04:37:55;;;;;;;7.93;5.28;;;;;;;13.04;96.57;102018.66;10523624;28;20032;-73
2022/06/04 04:42:56;;;;;;;6.32;4.90;;;;;;;13.06;96.26;102020.38;10542072;28;20075;-73
2022/06/04 04:47:56;;;;;;;8.10;4.13;;;;;;;13.19;97.49;102015.97;10541161;28;20034;-72
2022/06/04 04:52:57;;;;;;;6.75;5.00;;;;;;;13.22;97.64;102012.88;10541055;28;20040;-73
2022/06/04 04:57:58;;;;;;;6.20;5.60;;;;;;;13.37;96.85;102020.19;10541374;28;20299;-73
2022/06/04 05:02:59;;;;;;;11.45;5.78;;;;;;;13.37;96.53;102003.88;10540762;28;20048;-72
2022/06/04 05:07:59;;;;;;;10.02;5.25;;;;;;;13.32;97.40;102019.94;10514298;28;20024;-73
2022/06/04 05:13:00;;;;;;;7.78;5.32;;;;;;;13.42;96.53;102020.47;10541051;28;20116;-73
2022/06/04 05:18:00;;;;;;;10.88;5.63;;;;;;;13.62;93.77;102007.13;10541381;28;20107;-72
2022/06/04 05:23:01;;;;;;;4.95;4.55;;;;;;;13.92;92.67;102005.19;10541974;28;20123;-72
2022/06/04 05:28:01;;;;;;;9.40;4.95;;;;;;;14.20;91.65;102005.28;10541964;28;20028;-73
2022/06/04 05:33:02;;;;;;;7.00;4.88;;;;;;;14.30;89.94;102002.22;10521959;28;20036;-73
2022/06/04 05:38:02;;;;;;;4.75;3.75;;;;;;;14.42;89.23;102008.81;10540172;28;20123;-74
2022/06/04 05:43:03;;;;;;;5.78;4.80;;;;;;;14.32;89.20;102014.59;10557505;28;20457;-73
2022/06/04 05:48:03;;;;;;;9.02;4.22;;;;;;;14.58;87.70;102030.41;10559086;28;20504;-73
2022/06/04 05:53:04;;;;;;;10.48;4.60;;;;;;;14.88;86.86;102027.50;10531287;28;20128;-73
2022/06/04 05:58:04;;;;;;;7.05;4.55;;;;;;;14.79;86.19;102040.41;10548190;28;20477;-73
2022/06/04 06:03:05;;;;;;;6.30;4.45;;;;;;;14.63;86.19;102036.09;10529190;28;20056;-73
2022/06/04 06:08:06;;;;;;;5.00;3.92;;;;;;;14.60;86.79;102038.38;10529690;28;20036;-73
2022/06/04 06:13:06;;;;;;;4.63;3.88;;;;;;;14.72;86.05;102046.88;10529672;28;20038;-73
2022/06/04 06:18:07;;;;;;;16.48;5.43;;;;;;;14.76;85.56;102051.72;10549193;28;20388;-73
2022/06/04 06:23:09;;;;;;;3.95;3.58;;;;;;;14.58;87.33;102043.16;10546394;28;20036;-72
2022/06/04 06:28:10;;;;;;;5.32;3.97;;;;;;;14.54;86.57;102050.91;10546634;28;20119;-73
2022/06/04 06:33:10;;;;;;;6.75;4.35;;;;;;;14.59;87.23;102072.97;10547772;28;20150;-73
2022/06/04 06:38:11;;;;;;;6.18;3.45;;;;;;;14.68;86.75;102075.53;10515760;28;20036;-73
2022/06/04 06:43:11;;;;;;;6.13;3.85;;;;;;;14.86;86.22;102095.00;10548157;28;20064;-73
2022/06/04 06:48:12;;;;;;;7.28;5.03;;;;;;;14.78;85.52;102095.16;10546504;28;20027;-74
2022/06/04 06:53:12;;;;;;;7.78;3.88;;;;;;;14.96;85.69;102106.41;10527280;28;20114;-73
2022/06/04 06:58:12;;;;;;;7.57;4.10;;;;;;;15.26;84.62;102093.44;10528400;28;20111;-74
2022/06/04 07:03:13;;;;;;;5.97;3.50;;;;;;;15.90;82.64;102084.16;10545119;28;20068;-74
2022/06/04 07:08:13;;;;;;;11.80;4.65;;;;;;;17.13;77.95;102108.56;10527230;28;20098;-71
2022/06/04 07:13:13;;;;;;;9.90;4.55;;;;;;;17.47;76.94;102110.22;10544886;28;20483;-72
2022/06/04 07:18:14;;;;;;;12.50;4.13;;;;;;;17.80;74.65;102110.16;10544961;28;20067;-73
2022/06/04 07:23:16;;;;;;;6.20;4.63;;;;;;;17.25;75.74;102106.06;10526773;28;20397;-72
2022/06/04 07:28:17;;;;;;;15.57;4.55;;;;;;;16.96;76.17;102110.91;10545325;28;20028;-71
2022/06/04 07:33:17;;;;;;;6.22;3.67;;;;;;;16.33;78.44;102099.44;10528771;28;20449;-72
2022/06/04 07:38:18;;;;;;;9.30;5.40;;;;;;;16.38;79.11;102088.72;10544025;28;20032;-71
2022/06/04 07:43:18;;;;;;;5.85;3.22;;;;;;;16.36;79.38;102080.72;10526248;28;20063;-73
2022/06/04 07:48:19;;;;;;;3.83;3.53;;;;;;;16.38;79.39;102081.34;10544895;28;20036;-71
2022/06/04 07:53:19;;;;;;;4.53;4.13;;;;;;;16.34;80.18;102073.78;10526770;28;20123;-72
2022/06/04 07:58:19;;;;;;;11.10;4.45;;;;;;;16.57;80.05;102078.88;10543839;28;20040;-72
2022/06/04 08:03:20;;;;;;;8.48;4.93;;;;;;;16.40;80.31;102067.47;10524221;28;20469;-71
2022/06/04 08:08:20;;;;;;;7.28;3.45;;;;;;;16.45;79.99;102076.75;10508930;28;20218;-72
2022/06/04 08:13:28;;;;;;;6.82;4.43;;;;;;;16.22;80.90;102090.78;10511089;28;20032;-72
2022/06/04 08:18:29;;;;;;;5.30;3.65;;;;;;;15.97;82.25;102097.84;10543530;28;20035;-72
2022/06/04 08:23:29;;;;;;;6.85;3.70;;;;;;;15.96;82.19;102096.16;10522656;28;20036;-72
2022/06/04 08:28:29;;;;;;;5.43;3.78;;;;;;;15.99;82.57;102102.06;10541974;28;20028;-72
2022/06/04 08:33:30;;;;;;;5.82;4.63;;;;;;;15.88;82.74;102097.16;10542854;28;20040;-71
2022/06/04 08:38:31;;;;;;;4.10;3.80;;;;;;;16.11;82.08;102112.38;10507789;28;20040;-72
2022/06/04 08:43:45;;;;;;;5.82;3.72;;;;;;;16.27;81.05;102120.22;10541137;28;20069;-71
2022/06/04 08:48:47;;;;;;;15.00;4.85;;;;;;;16.13;82.51;102115.78;10524666;28;20032;-71
2022/06/04 08:53:51;;;;;;;7.60;3.35;;;;;;;16.19;82.66;102109.50;10505898;28;20059;-71
2022/06/04 08:59:06;;;;;;;8.10;5.05;;;;;;;16.15;82.22;102116.41;10507369;28;20111;-71
2022/06/04 09:04:10;;;;;;;7.47;4.68;;;;;;;16.32;81.75;102122.34;10540777;28;20518;-70
2022/06/04 09:09:20;;;;;;;10.02;4.90;;;;;;;16.33;81.49;102121.28;10542031;28;20024;-72
2022/06/04 09:14:44;;;;;;;12.52;3.95;;;;;;;16.37;81.66;102114.34;10540433;28;20044;-69
2022/06/04 09:19:50;;;;;;;4.78;4.40;;;;;;;16.50;81.06;102128.91;10540469;28;20032;-72
2022/06/04 09:24:51;;;;;;;10.70;4.90;;;;;;;16.61;81.37;102130.19;10522686;28;20063;-71
2022/06/04 09:30:05;;;;;;;6.70;3.42;;;;;;;16.57;81.45;102128.94;10523348;28;20039;-72
2022/06/04 09:35:05;;;;;;;5.93;4.40;;;;;;;16.54;81.20;102131.25;10522547;28;20076;-71
2022/06/04 09:40:07;;;;;;;4.35;3.17;;;;;;;16.56;81.23;102131.84;10521622;28;20461;-73
2022/06/04 09:45:26;;;;;;;5.15;4.53;;;;;;;16.62;80.94;102120.94;10522186;28;20031;-72
2022/06/04 09:50:31;;;;;;;6.30;3.67;;;;;;;16.60;81.43;102124.94;10523412;28;20081;-73
2022/06/04 09:55:32;;;;;;;4.60;3.60;;;;;;;16.55;82.32;102119.25;10504303;28;20034;-73
2022/06/04 10:00:34;;;;;;;10.95;4.57;;;;;;;16.73;81.38;102122.22;10539095;28;20063;-72
2022/06/04 10:05:35;;;;;;;7.15;3.70;;;;;;;16.96;80.49;102119.94;10550324;28;20051;-72
2022/06/04 10:10:38;;;;;;;9.38;4.78;;;;;;;16.95;80.23;102107.34;10565169;28;20457;-72
2022/06/04 10:15:45;;;;;;;7.20;4.30;;;;;;;16.96;80.07;102124.59;10548591;28;20076;-72
2022/06/04 10:20:55;;;;;;;4.47;4.05;;;;;;;16.80;81.42;102128.56;10565815;28;20035;-72
2022/06/04 10:26:02;;;;;;;6.13;4.28;;;;;;;16.65;81.92;102127.88;10587198;28;20024;-73
2022/06/04 10:31:10;;;;;;;6.10;4.60;;;;;;;16.76;82.21;102130.06;10591597;28;20032;-72
2022/06/04 10:36:44;;;;;;;8.88;4.35;;;;;;;16.90;81.50;102125.44;10563563;28;20105;-72
2022/06/04 10:41:47;;;;;;;8.40;5.13;;;;;;;17.00;81.27;102127.75;10555108;28;20088;-73
2022/06/04 10:46:51;;;;;;;7.15;4.88;;;;;;;16.88;81.98;102122.03;10570448;28;20418;-72
2022/06/04 10:52:19;;;;;;;6.57;5.45;;;;;;;16.38;85.51;102114.16;10570428;28;20371;-72
2022/06/04 10:57:33;;;;;;;5.15;4.68;;;;;;;16.34;85.32;102121.09;10570317;28;20027;-72
2022/06/04 11:02:41;;;;;;;10.63;5.35;;;;;;;16.58;85.16;102124.31;10567229;28;20068;-72
2022/06/04 11:07:57;;;;;;;5.97;5.35;;;;;;;16.70;83.74;102117.19;10528154;28;20040;-72
2022/06/04 11:13:07;;;;;;;6.75;6.05;;;;;;;16.93;83.79;102125.00;10546282;28;20033;-71
2022/06/04 11:18:17;;;;;;;5.38;4.68;;;;;;;17.17;83.00;102131.75;10526355;28;20028;-72
2022/06/04 11:23:35;;;;;;;5.93;4.43;;;;;;;17.39;82.23;102124.16;10527748;28;20024;-71
2022/06/04 11:28:35;;;;;;;9.50;5.45;;;;;;;17.80;81.38;102128.50;10544573;28;20093;-71
2022/06/04 11:34:13;;;;;;;6.07;5.45;;;;;;;18.03;79.61;102133.50;10527477;28;20034;-71
2022/06/04 11:39:25;;;;;;;7.63;5.32;;;;;;;18.39;78.69;102129.31;10543706;28;20479;-73
2022/06/04 11:44:40;;;;;;;9.38;5.10;;;;;;;18.64;77.31;102134.84;10543836;28;20396;-72
2022/06/04 11:49:45;;;;;;;7.28;4.82;;;;;;;18.86;76.87;102133.47;10544050;28;20023;-71
2022/06/04 11:55:02;;;;;;;5.47;4.93;;;;;;;19.10;75.60;102130.94;10526727;28;20097;-71
2022/06/04 12:00:12;;;;;;;7.40;6.13;;;;;;;19.45;72.90;102112.00;10542675;28;20028;-71
2022/06/04 12:05:39;;;;;;;8.23;5.50;;;;;;;20.12;71.99;102106.59;10543597;28;20054;-72
2022/06/04 12:11:17;;;;;;;6.20;5.32;;;;;;;20.65;70.59;102112.22;10486584;28;20455;-72
2022/06/04 12:16:24;;;;;;;6.70;5.10;;;;;;;21.08;67.86;102099.22;10542692;28;20101;-72
2022/06/04 12:27:05;;;;;;;4.93;4.53;;;;;;;24.24;60.45;102100.47;10527625;28;20032;-73
2022/06/04 12:32:19;;;;;;;5.88;4.43;;;;;;;24.27;57.87;102094.41;10525602;28;20027;-72
2022/06/04 12:37:31;;;;;;;7.75;5.53;;;;;;;23.09;57.42;102105.81;10507696;28;20114;-73
2022/06/04 12:42:31;;;;;;;5.93;4.50;;;;;;;21.97;60.87;102097.09;10508585;28;20020;-72
2022/06/04 12:47:36;;;;;;;6.53;4.78;;;;;;;21.66;62.06;102100.31;10523013;28;20040;-71
2022/06/04 12:52:47;;;;;;;5.10;4.70;;;;;;;21.73;63.26;102087.22;10523144;28;20024;-71
2022/06/04 12:58:02;;;;;;;13.13;5.68;;;;;;;23.03;59.32;102088.31;10528087;28;20035;-73
2022/06/04 13:03:08;;;;;;;6.40;5.13;;;;;;;23.48;56.86;102076.25;10516812;28;20058;-75
2022/06/04 13:08:11;;;;;;;;;;;;;;;23.63;55.71;102075.63;10543738;28;20020;-71
2022/06/04 13:13:25;;;;;;;6.90;5.35;;;;;;;24.05;56.17;102069.53;10523209;28;19915;-73
2022/06/04 13:18:28;;;;;;;13.57;5.95;;;;;;;23.99;54.86;102063.09;10523168;28;20047;-72
2022/06/04 13:23:46;;;;;;;5.65;4.72;;;;;;;24.09;56.22;102060.47;10523350;28;20028;-70
2022/06/04 13:28:49;;;;;;;5.30;4.78;;;;;;;24.08;53.95;102061.53;10525942;28;20115;-74
2022/06/04 13:33:51;;;;;;;5.22;4.75;;;;;;;24.17;54.57;102037.00;10543976;28;20468;-75
2022/06/04 13:38:54;;;;;;;8.77;4.53;;;;;;;24.05;54.59;102044.63;10525920;28;20031;-75
2022/06/04 13:43:54;;;;;;;7.78;5.85;;;;;;;24.10;54.31;102048.28;10543082;28;20031;-72
2022/06/04 13:49:10;;;;;;;7.30;3.90;;;;;;;24.23;54.28;102043.44;10523123;28;20031;-73
2022/06/04 13:54:23;;;;;;;11.05;4.88;;;;;;;24.36;56.32;102040.25;10522832;28;20024;-72
2022/06/04 13:59:28;;;;;;;5.10;4.30;;;;;;;24.51;52.63;102051.50;10522794;28;20024;-72
2022/06/04 14:09:52;;;;;;;5.03;4.53;;;;;;;24.04;54.28;102038.25;10548632;28;20028;-74
2022/06/04 14:15:06;;;;;;;4.57;4.20;;;;;;;23.95;54.71;102022.38;10553428;28;20456;-73
2022/06/04 14:20:16;;;;;;;4.93;4.47;;;;;;;24.13;55.37;102028.41;10520106;28;20103;-71
2022/06/04 14:25:44;;;;;;;3.88;3.42;;;;;;;24.30;54.83;102021.91;10517416;28;20032;-72
2022/06/04 14:30:53;;;;;;;5.93;4.10;;;;;;;24.06;53.16;102011.16;10549526;28;20032;-75
2022/06/04 14:36:07;;;;;;;5.07;4.18;;;;;;;23.68;53.27;102009.34;10550811;28;20031;-72
2022/06/04 14:41:12;;;;;;;4.78;4.43;;;;;;;23.27;54.16;102005.22;10535688;28;20055;-72
2022/06/04 14:46:34;;;;;;;5.45;4.47;;;;;;;23.53;55.18;101998.09;10533309;28;20043;-71
2022/06/04 14:51:42;;;;;;;4.47;3.95;;;;;;;23.74;55.74;101991.75;10535516;28;20032;-72
2022/06/04 14:57:03;;;;;;;4.78;4.35;;;;;;;23.64;54.64;101994.34;10533435;28;20024;-72
2022/06/04 15:02:17;;;;;;;3.90;3.60;;;;;;;23.26;55.95;101976.75;10535680;28;20119;-72
2022/06/04 15:07:32;;;;;;;4.28;3.97;;;;;;;23.39;55.78;101976.38;10561033;28;20043;-71
2022/06/04 15:13:00;;;;;;;8.27;4.55;;;;;;;23.54;55.54;101964.63;10594243;28;20030;-72
2022/06/04 15:18:01;;;;;;;5.13;3.20;;;;;;;23.66;56.84;101976.38;10582165;28;20370;-73
2022/06/04 15:23:07;;;;;;;10.43;5.35;;;;;;;23.69;54.24;101963.19;10576129;28;20035;-72
2022/06/04 15:28:10;;;;;;;4.38;3.95;;;;;;;23.69;55.80;101957.66;10576064;28;20427;-72
2022/06/04 15:38:37;;;;;;;7.73;3.43;;;;;;;23.66;57.48;101939.63;10574022;28;20039;-71
2022/06/04 15:43:38;;;;;;;4.13;3.45;;;;;;;23.79;57.29;101950.28;10556390;28;20042;-72
2022/06/04 15:48:39;;;;;;;5.88;3.35;;;;;;;23.56;56.35;101945.88;10556195;28;20453;-72
2022/06/04 15:59:36;;;;;;;10.73;3.92;;;;;;;23.25;57.20;101941.06;10576442;28;20040;-72
2022/06/04 16:04:49;;;;;;;4.18;3.78;;;;;;;22.94;57.49;101941.50;10553129;28;20074;-72
2022/06/04 16:10:05;;;;;;;4.72;4.25;;;;;;;22.70;58.78;101938.09;10530325;28;20024;-71
2022/06/04 16:15:14;;;;;;;3.30;3.10;;;;;;;22.63;59.51;101928.31;10509338;28;20482;-71
2022/06/04 16:20:24;;;;;;;5.47;3.40;;;;;;;22.51;59.75;101937.53;10549419;28;20070;-71
2022/06/04 16:25:31;;;;;;;4.80;4.03;;;;;;;21.99;61.07;101939.66;10547272;28;20028;-71
2022/06/04 16:30:31;;;;;;;4.40;4.00;;;;;;;21.65;62.36;101939.59;10528716;28;20028;-71
2022/06/04 16:35:47;;;;;;;4.13;3.72;;;;;;;21.43;63.59;101933.09;10512732;28;20047;-71
2022/06/04 16:46:07;;;;;;;6.55;4.43;;;;;;;21.20;63.77;101925.69;10542965;28;20481;-72
2022/06/04 16:51:08;;;;;;;9.32;3.17;;;;;;;21.16;64.29;101913.50;10490445;28;20016;-73
2022/06/04 16:56:08;;;;;;;12.52;3.60;;;;;;;21.04;64.37;101911.59;10510040;28;20034;-71
2022/06/04 17:01:27;;;;;;;10.55;4.05;;;;;;;21.00;65.31;101918.69;10545488;28;20039;-71
2022/06/04 17:06:50;;;;;;;4.55;4.05;;;;;;;20.98;65.73;101918.06;10565511;28;20381;-73
2022/06/04 17:12:02;;;;;;;4.90;4.47;;;;;;;20.92;66.14;101909.94;10570219;28;20028;-71
2022/06/04 17:17:15;;;;;;;4.43;3.97;;;;;;;20.82;67.19;101913.31;10590509;28;20057;-71
2022/06/04 17:22:47;;;;;;;5.53;4.25;;;;;;;20.67;68.01;101900.88;10571018;28;20031;-71
2022/06/04 17:28:19;;;;;;;4.57;4.18;;;;;;;20.63;68.01;101912.59;10572770;28;20032;-72
2022/06/04 17:33:39;;;;;;;5.10;3.95;;;;;;;20.55;67.64;101924.81;10568242;28;20038;-72
2022/06/04 17:39:09;;;;;;;4.95;3.85;;;;;;;20.49;68.47;101914.75;10582951;28;20555;-72
2022/06/04 17:44:09;;;;;;;6.13;3.80;;;;;;;20.49;68.30;101911.16;10553900;28;20039;-72
2022/06/04 17:49:10;;;;;;;8.75;3.78;;;;;;;20.33;69.68;101905.28;10584551;28;20536;-72
2022/06/04 17:54:11;;;;;;;7.35;4.75;;;;;;;20.24;70.07;101912.22;10582792;28;20438;-72
2022/06/04 17:59:12;;;;;;;6.70;4.22;;;;;;;20.21;69.34;101898.94;10563995;28;20116;-71
2022/06/04 18:04:12;;;;;;;3.50;3.28;;;;;;;20.07;70.53;101900.22;10564693;28;20094;-71
2022/06/04 18:09:13;;;;;;;4.22;3.92;;;;;;;20.00;70.69;101894.00;10547593;28;20456;-72
2022/06/04 18:14:14;;;;;;;7.32;4.32;;;;;;;19.88;71.33;101889.31;10582559;28;20042;-71
2022/06/04 18:19:14;;;;;;;4.10;3.80;;;;;;;19.79;71.60;101884.41;10563225;28;20031;-70
2022/06/04 18:24:15;;;;;;;4.38;3.97;;;;;;;19.66;72.02;101885.44;10563140;28;20545;-71
2022/06/04 18:29:15;;;;;;;5.57;4.30;;;;;;;19.59;72.95;101888.25;10584852;28;20042;-71
2022/06/04 18:34:16;;;;;;;4.15;3.75;;;;;;;19.52;73.38;101877.34;10562175;28;20042;-71
2022/06/04 18:39:16;;;;;;;11.82;4.20;;;;;;;19.58;72.33;101870.06;10580063;28;20031;-71
2022/06/04 18:54:56;;;;;;;5.70;4.97;;;;;;;19.31;74.67;101877.03;10572164;28;20111;-72
2022/06/04 18:59:58;;;;;;;5.43;4.35;;;;;;;19.13;75.86;101873.22;10552673;28;20047;-71
2022/06/04 19:05:03;;;;;;;6.95;4.40;;;;;;;18.91;76.58;101864.63;10569674;28;20059;-71
2022/06/04 19:10:05;;;;;;;8.38;4.50;;;;;;;18.80;77.55;101879.97;10570659;28;20035;-71
2022/06/04 19:15:07;;;;;;;5.40;3.78;;;;;;;18.70;76.99;101873.31;10590815;28;20035;-71
2022/06/04 19:25:30;;;;;;;9.07;5.60;;;;;;;18.43;78.34;101889.19;10577240;28;20035;-71
2022/06/04 19:30:34;;;;;;;8.05;4.82;;;;;;;18.30;79.60;101885.50;10572889;28;20186;-71
2022/06/04 19:35:35;;;;;;;8.55;5.65;;;;;;;18.09;81.30;101880.41;10571907;28;20122;-70
2022/06/04 19:40:36;;;;;;;5.30;4.28;;;;;;;17.99;80.47;101875.44;10591325;28;20439;-70
2022/06/04 19:45:36;;;;;;;12.40;5.03;;;;;;;17.83;82.59;101882.28;10589996;28;20035;-71
2022/06/04 19:50:37;;;;;;;12.18;6.47;;;;;;;17.67;82.87;101891.00;10593222;28;20105;-70
2022/06/04 19:55:38;;;;;;;12.60;5.88;;;;;;;17.52;84.68;101895.97;10589030;28;20065;-70
2022/06/04 20:00:39;;;;;;;6.28;4.55;;;;;;;17.54;81.67;101908.38;10549640;28;20032;-71
2022/06/04 20:05:40;;;;;;;11.48;7.20;;;;;;;17.34;85.17;101911.22;10587133;28;20142;-72
2022/06/04 20:10:40;;;;;;;6.47;4.32;;;;;;;17.23;86.64;101920.13;10585551;28;20444;-71
2022/06/04 20:15:41;;;;;;;6.43;5.68;;;;;;;17.07;87.17;101931.53;10567746;28;20119;-71
2022/06/04 20:20:42;;;;;;;9.93;5.63;;;;;;;17.04;88.09;101940.16;10570291;28;20028;-71
2022/06/04 20:25:46;;;;;;;14.68;5.72;;;;;;;16.96;88.17;101944.81;10549715;28;20070;-70
2022/06/04 20:30:48;;;;;;;4.65;4.25;;;;;;;16.94;87.79;101941.47;10567100;28;20032;-72
2022/06/04 20:35:48;;;;;;;14.00;5.70;;;;;;;16.86;88.75;101938.97;10550267;28;20066;-71
2022/06/04 20:41:09;;;;;;;5.57;5.05;;;;;;;16.74;90.14;101940.63;10567482;28;20062;-72
2022/06/04 20:46:11;;;;;;;12.55;5.63;;;;;;;16.69;89.21;101929.50;10566564;28;20092;-72
2022/06/04 20:51:14;;;;;;;7.10;4.43;;;;;;;16.60;90.38;101914.38;10584232;28;20075;-70
2022/06/04 20:56:17;;;;;;;10.88;5.43;;;;;;;16.50;91.33;101912.91;10582943;28;20027;-70
2022/06/04 21:01:18;;;;;;;9.45;4.93;;;;;;;16.46;91.08;101905.31;10565157;28;20036;-70
2022/06/04 21:06:20;;;;;;;13.55;6.18;;;;;;;16.28;93.30;101892.31;10564929;28;20058;-71
2022/06/04 21:11:20;;;;;;;6.47;5.88;;;;;;;16.15;94.98;101897.81;10547547;28;20430;-69
2022/06/04 21:16:22;;;;;;;19.65;7.40;;;;;;;16.14;93.60;101896.94;10583302;28;20031;-69
2022/06/04 21:21:23;;;;;;;10.60;6.00;;;;;;;16.11;94.36;101899.25;10547616;28;20023;-71
2022/06/04 21:26:25;;;;;;;6.40;5.80;;;;;;;16.02;94.88;101902.19;10581755;28;20027;-70
2022/06/04 21:31:26;;;;;;;6.85;6.00;;;;;;;15.96;95.81;101903.03;10564219;28;20042;-69
2022/06/04 21:41:53;;;;;;;9.53;7.20;;;;;;;15.90;96.03;101878.44;10581622;28;20032;-71
2022/06/04 21:46:54;;;;;;;12.00;6.47;;;;;;;15.91;95.91;101880.97;10581711;28;20043;-70
2022/06/04 21:51:54;;;;;;;10.25;7.13;;;;;;;15.84;97.54;101891.03;10548176;28;20108;-70
2022/06/04 21:56:55;;;;;;;6.65;5.95;;;;;;;15.95;93.89;101890.44;10583332;28;20077;-71
2022/06/04 22:01:55;;;;;;;7.18;5.40;;;;;;;15.93;95.18;101902.63;10581564;28;20381;-70
2022/06/04 22:06:55;;;;;;;8.20;5.45;;;;;;;15.92;94.60;101899.06;10564493;28;20102;-70
2022/06/04 22:12:08;;;;;;;8.90;5.40;;;;;;;15.88;95.70;101903.22;10563738;28;20115;-71
2022/06/04 22:17:08;;;;;;;10.75;6.07;;;;;;;15.84;96.14;101896.50;10581776;28;20093;-70
2022/06/04 22:22:09;;;;;;;6.18;5.35;;;;;;;15.81;96.17;101903.22;10566879;28;20027;-69
2022/06/04 22:27:10;;;;;;;11.45;6.32;;;;;;;15.79;95.85;101899.88;10572443;28;20039;-70
2022/06/04 22:32:11;;;;;;;6.28;5.45;;;;;;;15.79;95.74;101885.34;10589172;28;20024;-70
2022/06/04 22:37:11;;;;;;;15.23;6.25;;;;;;;15.75;95.56;101886.81;10555806;28;20027;-72
2022/06/04 22:42:12;;;;;;;15.10;7.47;;;;;;;15.69;96.09;101879.47;10591919;28;20075;-70
2022/06/04 22:47:17;;;;;;;6.22;5.63;;;;;;;15.61;96.16;101869.56;10590356;28;20035;-70
2022/06/04 22:52:17;;;;;;;13.45;5.68;;;;;;;15.63;95.26;101874.78;10588268;28;20028;-70
2022/06/04 22:57:18;;;;;;;9.95;5.25;;;;;;;15.49;96.45;101836.56;10570541;28;20403;-70
2022/06/04 23:02:19;;;;;;;5.82;5.22;;;;;;;15.44;95.62;101849.97;10587849;28;20031;-70
2022/06/04 23:07:19;;;;;;;23.25;5.50;;;;;;;15.33;96.22;101848.69;10570890;28;20051;-70
2022/06/04 23:23:05;;;;;;;7.38;5.20;;;;;;;15.19;95.63;101843.41;10587084;28;20035;-70
2022/06/04 23:28:09;;;;;;;6.57;5.75;;;;;;;15.11;97.00;101837.09;10587555;28;20032;-70
2022/06/04 23:33:09;;;;;;;11.00;5.90;;;;;;;15.11;96.53;101826.16;10569602;28;20036;-70
2022/06/04 23:38:10;;;;;;;9.27;5.32;;;;;;;15.13;95.58;101808.78;10587060;28;20028;-69
2022/06/04 23:43:11;;;;;;;11.48;6.13;;;;;;;15.16;95.23;101795.56;10585581;28;20032;-70
2022/06/04 23:48:13;;;;;;;8.85;5.13;;;;;;;15.07;95.79;101785.88;10568524;28;20043;-71
2022/06/04 23:53:17;;;;;;;11.38;6.63;;;;;;;15.00;95.60;101779.56;10551858;28;20027;-73
2022/06/04 23:58:17;;;;;;;8.75;5.05;;;;;;;14.87;96.69;101772.19;10567579;28;20119;-71
